sensor_id;sensor_type;location;lat;lon;timestamp;P1;durP1;ratioP1;P2;durP2;ratioP2
36009;SDS011;22076;52.182;5.404;2022-11-21T00:01:56;85.53;;;38.55;;
36009;SDS011;22076;52.182;5.404;2022-11-21T00:04:23;80.30;;;37.35;;
36009;SDS011;22076;52.182;5.404;2022-11-21T00:06:49;80.07;;;33.95;;
36009;SDS011;22076;52.182;5.404;2022-11-21T00:09:16;82.32;;;34.90;;
36009;SDS011;22076;52.182;5.404;2022-11-21T00:11:43;88.78;;;37.25;;
36009;SDS011;22076;52.182;5.404;2022-11-21T00:14:09;55.50;;;27.35;;
36009;SDS011;22076;52.182;5.404;2022-11-21T00:16:37;58.95;;;27.95;;
36009;SDS011;22076;52.182;5.404;2022-11-21T00:19:04;74.70;;;36.40;;
36009;SDS011;22076;52.182;5.404;2022-11-21T00:21:30;85.13;;;39.70;;
36009;SDS011;22076;52.182;5.404;2022-11-21T00:23:57;48.72;;;23.77;;
36009;SDS011;22076;52.182;5.404;2022-11-21T00:26:23;67.82;;;30.52;;
36009;SDS011;22076;52.182;5.404;2022-11-21T00:28:50;91.55;;;36.80;;
36009;SDS011;22076;52.182;5.404;2022-11-21T00:31:17;74.45;;;33.58;;
36009;SDS011;22076;52.182;5.404;2022-11-21T00:33:46;64.57;;;28.73;;
36009;SDS011;22076;52.182;5.404;2022-11-21T00:36:12;82.13;;;38.90;;
36009;SDS011;22076;52.182;5.404;2022-11-21T00:38:39;86.50;;;37.45;;
36009;SDS011;22076;52.182;5.404;2022-11-21T00:41:05;68.05;;;29.80;;
36009;SDS011;22076;52.182;5.404;2022-11-21T00:43:32;87.43;;;35.22;;
36009;SDS011;22076;52.182;5.404;2022-11-21T00:45:59;47.72;;;24.15;;
36009;SDS011;22076;52.182;5.404;2022-11-21T00:48:26;94.47;;;39.03;;
36009;SDS011;22076;52.182;5.404;2022-11-21T00:50:54;68.45;;;28.38;;
36009;SDS011;22076;52.182;5.404;2022-11-21T00:53:21;49.00;;;23.63;;
36009;SDS011;22076;52.182;5.404;2022-11-21T00:55:47;73.50;;;30.48;;
36009;SDS011;22076;52.182;5.404;2022-11-21T00:58:14;61.80;;;30.23;;
36009;SDS011;22076;52.182;5.404;2022-11-21T01:00:41;60.70;;;28.58;;
36009;SDS011;22076;52.182;5.404;2022-11-21T01:03:07;80.97;;;35.33;;
36009;SDS011;22076;52.182;5.404;2022-11-21T01:05:34;60.70;;;28.83;;
36009;SDS011;22076;52.182;5.404;2022-11-21T01:08:01;37.50;;;19.02;;
36009;SDS011;22076;52.182;5.404;2022-11-21T01:10:28;83.47;;;35.47;;
36009;SDS011;22076;52.182;5.404;2022-11-21T01:12:55;81.20;;;33.90;;
36009;SDS011;22076;52.182;5.404;2022-11-21T01:15:21;68.13;;;32.17;;
36009;SDS011;22076;52.182;5.404;2022-11-21T01:17:48;85.78;;;36.78;;
36009;SDS011;22076;52.182;5.404;2022-11-21T01:20:14;73.57;;;32.13;;
36009;SDS011;22076;52.182;5.404;2022-11-21T01:22:42;72.68;;;32.40;;
36009;SDS011;22076;52.182;5.404;2022-11-21T01:25:10;92.35;;;38.05;;
36009;SDS011;22076;52.182;5.404;2022-11-21T01:27:36;57.78;;;28.42;;
36009;SDS011;22076;52.182;5.404;2022-11-21T01:30:03;91.20;;;39.65;;
36009;SDS011;22076;52.182;5.404;2022-11-21T01:32:30;68.80;;;29.58;;
36009;SDS011;22076;52.182;5.404;2022-11-21T01:34:56;73.97;;;32.75;;
36009;SDS011;22076;52.182;5.404;2022-11-21T01:37:23;67.20;;;30.30;;
36009;SDS011;22076;52.182;5.404;2022-11-21T01:39:50;61.72;;;30.17;;
36009;SDS011;22076;52.182;5.404;2022-11-21T01:42:17;62.85;;;27.77;;
36009;SDS011;22076;52.182;5.404;2022-11-21T01:44:45;96.00;;;39.78;;
36009;SDS011;22076;52.182;5.404;2022-11-21T01:47:13;83.03;;;34.45;;
36009;SDS011;22076;52.182;5.404;2022-11-21T01:49:39;47.90;;;23.40;;
36009;SDS011;22076;52.182;5.404;2022-11-21T01:52:07;87.53;;;36.25;;
36009;SDS011;22076;52.182;5.404;2022-11-21T01:54:35;78.80;;;34.80;;
36009;SDS011;22076;52.182;5.404;2022-11-21T01:57:04;84.93;;;37.97;;
36009;SDS011;22076;52.182;5.404;2022-11-21T01:59:35;81.15;;;37.58;;
36009;SDS011;22076;52.182;5.404;2022-11-21T02:02:04;86.47;;;39.00;;
36009;SDS011;22076;52.182;5.404;2022-11-21T02:04:33;69.30;;;34.17;;
36009;SDS011;22076;52.182;5.404;2022-11-21T02:07:00;78.85;;;38.67;;
36009;SDS011;22076;52.182;5.404;2022-11-21T02:09:28;85.28;;;38.40;;
36009;SDS011;22076;52.182;5.404;2022-11-21T02:11:57;78.20;;;37.10;;
36009;SDS011;22076;52.182;5.404;2022-11-21T02:14:25;55.63;;;27.92;;
36009;SDS011;22076;52.182;5.404;2022-11-21T02:16:54;59.90;;;27.15;;
36009;SDS011;22076;52.182;5.404;2022-11-21T02:19:23;69.68;;;30.52;;
36009;SDS011;22076;52.182;5.404;2022-11-21T02:21:54;85.70;;;37.00;;
36009;SDS011;22076;52.182;5.404;2022-11-21T02:24:28;66.25;;;28.75;;
36009;SDS011;22076;52.182;5.404;2022-11-21T02:29:36;80.20;;;33.70;;
36009;SDS011;22076;52.182;5.404;2022-11-21T02:32:04;81.72;;;33.83;;
36009;SDS011;22076;52.182;5.404;2022-11-21T02:34:31;81.28;;;37.20;;
36009;SDS011;22076;52.182;5.404;2022-11-21T02:36:58;75.15;;;34.22;;
36009;SDS011;22076;52.182;5.404;2022-11-21T02:39:25;62.90;;;28.08;;
36009;SDS011;22076;52.182;5.404;2022-11-21T02:41:56;82.15;;;36.70;;
36009;SDS011;22076;52.182;5.404;2022-11-21T02:44:28;82.97;;;38.65;;
36009;SDS011;22076;52.182;5.404;2022-11-21T02:46:57;92.72;;;36.92;;
36009;SDS011;22076;52.182;5.404;2022-11-21T02:49:28;87.30;;;39.97;;
36009;SDS011;22076;52.182;5.404;2022-11-21T02:52:02;79.68;;;34.60;;
36009;SDS011;22076;52.182;5.404;2022-11-21T02:54:31;72.18;;;34.00;;
36009;SDS011;22076;52.182;5.404;2022-11-21T02:56:58;64.40;;;30.42;;
36009;SDS011;22076;52.182;5.404;2022-11-21T02:59:24;87.07;;;38.58;;
36009;SDS011;22076;52.182;5.404;2022-11-21T03:01:52;67.90;;;30.52;;
36009;SDS011;22076;52.182;5.404;2022-11-21T03:04:21;96.72;;;38.63;;
36009;SDS011;22076;52.182;5.404;2022-11-21T03:06:48;73.32;;;32.30;;
36009;SDS011;22076;52.182;5.404;2022-11-21T03:09:14;83.78;;;40.25;;
36009;SDS011;22076;52.182;5.404;2022-11-21T03:11:41;63.83;;;28.58;;
36009;SDS011;22076;52.182;5.404;2022-11-21T03:14:07;85.55;;;37.90;;
36009;SDS011;22076;52.182;5.404;2022-11-21T03:16:34;64.20;;;28.73;;
36009;SDS011;22076;52.182;5.404;2022-11-21T03:19:02;89.05;;;38.90;;
36009;SDS011;22076;52.182;5.404;2022-11-21T03:21:28;92.90;;;40.83;;
36009;SDS011;22076;52.182;5.404;2022-11-21T03:23:55;86.90;;;36.88;;
36009;SDS011;22076;52.182;5.404;2022-11-21T03:26:21;70.53;;;30.27;;
36009;SDS011;22076;52.182;5.404;2022-11-21T03:28:48;64.60;;;28.85;;
36009;SDS011;22076;52.182;5.404;2022-11-21T03:31:14;80.45;;;32.25;;
36009;SDS011;22076;52.182;5.404;2022-11-21T03:33:41;109.75;;;36.85;;
36009;SDS011;22076;52.182;5.404;2022-11-21T03:36:10;78.65;;;29.60;;
36009;SDS011;22076;52.182;5.404;2022-11-21T03:38:36;106.60;;;35.28;;
36009;SDS011;22076;52.182;5.404;2022-11-21T03:41:03;101.30;;;33.90;;
36009;SDS011;22076;52.182;5.404;2022-11-21T03:43:50;82.85;;;28.65;;
36009;SDS011;22076;52.182;5.404;2022-11-21T03:46:17;155.77;;;39.33;;
36009;SDS011;22076;52.182;5.404;2022-11-21T03:48:43;128.40;;;35.92;;
36009;SDS011;22076;52.182;5.404;2022-11-21T03:51:11;89.95;;;30.25;;
36009;SDS011;22076;52.182;5.404;2022-11-21T03:53:37;102.47;;;32.17;;
36009;SDS011;22076;52.182;5.404;2022-11-21T03:56:04;74.63;;;27.83;;
36009;SDS011;22076;52.182;5.404;2022-11-21T03:58:36;100.18;;;32.17;;
36009;SDS011;22076;52.182;5.404;2022-11-21T04:01:03;101.47;;;32.33;;
36009;SDS011;22076;52.182;5.404;2022-11-21T04:03:30;78.47;;;24.70;;
36009;SDS011;22076;52.182;5.404;2022-11-21T04:05:56;105.85;;;31.45;;
36009;SDS011;22076;52.182;5.404;2022-11-21T04:08:24;114.88;;;32.15;;
36009;SDS011;22076;52.182;5.404;2022-11-21T04:10:51;101.15;;;32.30;;
36009;SDS011;22076;52.182;5.404;2022-11-21T04:13:19;112.68;;;33.22;;
36009;SDS011;22076;52.182;5.404;2022-11-21T04:15:46;124.80;;;35.58;;
36009;SDS011;22076;52.182;5.404;2022-11-21T04:18:12;111.25;;;33.80;;
36009;SDS011;22076;52.182;5.404;2022-11-21T04:20:39;141.80;;;35.25;;
36009;SDS011;22076;52.182;5.404;2022-11-21T04:23:05;91.85;;;31.80;;
36009;SDS011;22076;52.182;5.404;2022-11-21T04:25:33;130.50;;;34.20;;
36009;SDS011;22076;52.182;5.404;2022-11-21T04:28:01;121.28;;;28.77;;
36009;SDS011;22076;52.182;5.404;2022-11-21T04:30:28;178.43;;;38.63;;
36009;SDS011;22076;52.182;5.404;2022-11-21T04:32:56;148.02;;;35.42;;
36009;SDS011;22076;52.182;5.404;2022-11-21T04:35:22;133.65;;;32.10;;
36009;SDS011;22076;52.182;5.404;2022-11-21T04:37:49;80.28;;;29.27;;
36009;SDS011;22076;52.182;5.404;2022-11-21T04:40:16;84.47;;;27.85;;
36009;SDS011;22076;52.182;5.404;2022-11-21T04:42:45;168.93;;;36.67;;
36009;SDS011;22076;52.182;5.404;2022-11-21T04:45:13;101.53;;;31.08;;
36009;SDS011;22076;52.182;5.404;2022-11-21T04:47:41;163.63;;;36.25;;
36009;SDS011;22076;52.182;5.404;2022-11-21T04:50:09;125.72;;;32.13;;
36009;SDS011;22076;52.182;5.404;2022-11-21T04:52:37;101.57;;;30.45;;
36009;SDS011;22076;52.182;5.404;2022-11-21T04:55:04;141.05;;;32.90;;
36009;SDS011;22076;52.182;5.404;2022-11-21T04:57:31;184.00;;;38.13;;
36009;SDS011;22076;52.182;5.404;2022-11-21T04:59:59;113.60;;;30.95;;
36009;SDS011;22076;52.182;5.404;2022-11-21T05:02:26;220.15;;;39.53;;
36009;SDS011;22076;52.182;5.404;2022-11-21T05:04:52;118.68;;;31.40;;
36009;SDS011;22076;52.182;5.404;2022-11-21T05:07:19;137.00;;;32.63;;
36009;SDS011;22076;52.182;5.404;2022-11-21T05:09:45;120.82;;;32.33;;
36009;SDS011;22076;52.182;5.404;2022-11-21T05:12:11;134.15;;;34.35;;
36009;SDS011;22076;52.182;5.404;2022-11-21T05:14:56;204.05;;;40.53;;
36009;SDS011;22076;52.182;5.404;2022-11-21T05:17:24;181.15;;;38.65;;
36009;SDS011;22076;52.182;5.404;2022-11-21T05:19:50;163.02;;;36.72;;
36009;SDS011;22076;52.182;5.404;2022-11-21T05:22:16;141.35;;;34.78;;
36009;SDS011;22076;52.182;5.404;2022-11-21T05:24:43;123.40;;;31.63;;
36009;SDS011;22076;52.182;5.404;2022-11-21T05:27:09;89.10;;;29.25;;
36009;SDS011;22076;52.182;5.404;2022-11-21T05:29:36;93.03;;;33.38;;
36009;SDS011;22076;52.182;5.404;2022-11-21T05:32:03;103.03;;;32.65;;
36009;SDS011;22076;52.182;5.404;2022-11-21T05:34:31;81.78;;;27.55;;
36009;SDS011;22076;52.182;5.404;2022-11-21T05:36:57;104.45;;;32.65;;
36009;SDS011;22076;52.182;5.404;2022-11-21T05:39:24;126.53;;;33.78;;
36009;SDS011;22076;52.182;5.404;2022-11-21T05:41:50;118.65;;;33.08;;
36009;SDS011;22076;52.182;5.404;2022-11-21T05:44:18;119.63;;;30.73;;
36009;SDS011;22076;52.182;5.404;2022-11-21T05:46:44;98.22;;;30.02;;
36009;SDS011;22076;52.182;5.404;2022-11-21T05:49:10;119.63;;;34.13;;
36009;SDS011;22076;52.182;5.404;2022-11-21T05:51:38;65.22;;;26.40;;
36009;SDS011;22076;52.182;5.404;2022-11-21T05:54:05;83.95;;;30.02;;
36009;SDS011;22076;52.182;5.404;2022-11-21T05:56:31;57.25;;;23.23;;
36009;SDS011;22076;52.182;5.404;2022-11-21T05:58:58;71.13;;;29.33;;
36009;SDS011;22076;52.182;5.404;2022-11-21T06:01:24;83.22;;;32.20;;
36009;SDS011;22076;52.182;5.404;2022-11-21T06:04:05;80.65;;;29.08;;
36009;SDS011;22076;52.182;5.404;2022-11-21T06:06:31;70.20;;;26.85;;
36009;SDS011;22076;52.182;5.404;2022-11-21T06:08:59;81.13;;;32.00;;
36009;SDS011;22076;52.182;5.404;2022-11-21T06:11:26;84.97;;;32.17;;
36009;SDS011;22076;52.182;5.404;2022-11-21T06:13:53;95.40;;;31.27;;
36009;SDS011;22076;52.182;5.404;2022-11-21T06:16:19;77.38;;;27.90;;
36009;SDS011;22076;52.182;5.404;2022-11-21T06:18:48;101.20;;;31.58;;
36009;SDS011;22076;52.182;5.404;2022-11-21T06:21:16;112.70;;;32.10;;
36009;SDS011;22076;52.182;5.404;2022-11-21T06:23:44;97.88;;;32.15;;
36009;SDS011;22076;52.182;5.404;2022-11-21T06:26:13;96.22;;;30.90;;
36009;SDS011;22076;52.182;5.404;2022-11-21T06:28:40;78.75;;;27.30;;
36009;SDS011;22076;52.182;5.404;2022-11-21T06:31:08;113.95;;;36.22;;
36009;SDS011;22076;52.182;5.404;2022-11-21T06:33:35;133.27;;;35.33;;
36009;SDS011;22076;52.182;5.404;2022-11-21T06:36:02;81.13;;;28.83;;
36009;SDS011;22076;52.182;5.404;2022-11-21T06:38:29;118.45;;;35.55;;
36009;SDS011;22076;52.182;5.404;2022-11-21T06:40:56;103.03;;;33.58;;
36009;SDS011;22076;52.182;5.404;2022-11-21T06:43:24;107.78;;;32.60;;
36009;SDS011;22076;52.182;5.404;2022-11-21T06:45:50;104.97;;;31.90;;
36009;SDS011;22076;52.182;5.404;2022-11-21T06:48:17;98.05;;;31.33;;
36009;SDS011;22076;52.182;5.404;2022-11-21T06:50:43;101.82;;;34.00;;
36009;SDS011;22076;52.182;5.404;2022-11-21T06:53:10;110.32;;;31.45;;
36009;SDS011;22076;52.182;5.404;2022-11-21T06:55:36;83.38;;;28.75;;
36009;SDS011;22076;52.182;5.404;2022-11-21T06:58:03;87.00;;;29.70;;
36009;SDS011;22076;52.182;5.404;2022-11-21T07:00:31;97.72;;;32.92;;
36009;SDS011;22076;52.182;5.404;2022-11-21T07:02:58;94.05;;;32.47;;
36009;SDS011;22076;52.182;5.404;2022-11-21T07:05:25;103.30;;;33.83;;
36009;SDS011;22076;52.182;5.404;2022-11-21T07:07:56;87.68;;;27.08;;
36009;SDS011;22076;52.182;5.404;2022-11-21T07:10:23;88.85;;;31.80;;
36009;SDS011;22076;52.182;5.404;2022-11-21T07:12:49;75.15;;;26.75;;
36009;SDS011;22076;52.182;5.404;2022-11-21T07:15:34;90.88;;;27.13;;
36009;SDS011;22076;52.182;5.404;2022-11-21T07:18:01;117.20;;;32.25;;
36009;SDS011;22076;52.182;5.404;2022-11-21T07:20:27;106.45;;;31.83;;
36009;SDS011;22076;52.182;5.404;2022-11-21T07:22:54;95.28;;;31.13;;
36009;SDS011;22076;52.182;5.404;2022-11-21T07:25:20;90.85;;;31.17;;
36009;SDS011;22076;52.182;5.404;2022-11-21T07:27:47;102.93;;;34.78;;
36009;SDS011;22076;52.182;5.404;2022-11-21T07:30:14;73.75;;;25.90;;
36009;SDS011;22076;52.182;5.404;2022-11-21T07:32:42;62.67;;;23.67;;
36009;SDS011;22076;52.182;5.404;2022-11-21T07:35:08;79.55;;;30.00;;
36009;SDS011;22076;52.182;5.404;2022-11-21T07:37:36;97.25;;;33.05;;
36009;SDS011;22076;52.182;5.404;2022-11-21T07:40:03;83.65;;;29.90;;
36009;SDS011;22076;52.182;5.404;2022-11-21T07:42:31;53.72;;;21.05;;
36009;SDS011;22076;52.182;5.404;2022-11-21T07:44:57;94.18;;;32.10;;
36009;SDS011;22076;52.182;5.404;2022-11-21T07:47:24;93.85;;;32.63;;
36009;SDS011;22076;52.182;5.404;2022-11-21T07:49:51;78.90;;;31.30;;
36009;SDS011;22076;52.182;5.404;2022-11-21T07:52:18;86.43;;;29.50;;
36009;SDS011;22076;52.182;5.404;2022-11-21T07:54:47;85.00;;;29.35;;
36009;SDS011;22076;52.182;5.404;2022-11-21T07:57:13;78.40;;;27.80;;
36009;SDS011;22076;52.182;5.404;2022-11-21T07:59:48;98.18;;;28.42;;
36009;SDS011;22076;52.182;5.404;2022-11-21T08:02:17;85.90;;;32.53;;
36009;SDS011;22076;52.182;5.404;2022-11-21T08:04:44;62.17;;;22.23;;
36009;SDS011;22076;52.182;5.404;2022-11-21T08:07:12;94.80;;;32.58;;
36009;SDS011;22076;52.182;5.404;2022-11-21T08:09:39;90.55;;;29.77;;
36009;SDS011;22076;52.182;5.404;2022-11-21T08:12:05;73.38;;;26.33;;
36009;SDS011;22076;52.182;5.404;2022-11-21T08:14:32;83.75;;;28.60;;
36009;SDS011;22076;52.182;5.404;2022-11-21T08:17:01;103.57;;;32.75;;
36009;SDS011;22076;52.182;5.404;2022-11-21T08:19:29;81.63;;;27.08;;
36009;SDS011;22076;52.182;5.404;2022-11-21T08:21:56;82.70;;;27.23;;
36009;SDS011;22076;52.182;5.404;2022-11-21T08:24:25;80.65;;;28.63;;
36009;SDS011;22076;52.182;5.404;2022-11-21T08:26:51;75.50;;;26.02;;
36009;SDS011;22076;52.182;5.404;2022-11-21T08:29:20;95.13;;;33.45;;
36009;SDS011;22076;52.182;5.404;2022-11-21T08:31:47;91.57;;;31.63;;
36009;SDS011;22076;52.182;5.404;2022-11-21T08:34:15;80.78;;;32.95;;
36009;SDS011;22076;52.182;5.404;2022-11-21T08:36:46;107.50;;;32.95;;
36009;SDS011;22076;52.182;5.404;2022-11-21T08:39:12;85.97;;;30.70;;
36009;SDS011;22076;52.182;5.404;2022-11-21T08:41:40;63.35;;;24.90;;
36009;SDS011;22076;52.182;5.404;2022-11-21T08:44:24;81.97;;;27.55;;
36009;SDS011;22076;52.182;5.404;2022-11-21T08:49:54;94.28;;;31.55;;
36009;SDS011;22076;52.182;5.404;2022-11-21T08:52:31;95.80;;;34.28;;
36009;SDS011;22076;52.182;5.404;2022-11-21T08:58:17;111.38;;;37.92;;
36009;SDS011;22076;52.182;5.404;2022-11-21T09:00:45;77.90;;;27.90;;
36009;SDS011;22076;52.182;5.404;2022-11-21T09:03:14;121.03;;;34.75;;
36009;SDS011;22076;52.182;5.404;2022-11-21T09:05:58;131.30;;;35.63;;
36009;SDS011;22076;52.182;5.404;2022-11-21T09:08:34;114.47;;;36.42;;
36009;SDS011;22076;52.182;5.404;2022-11-21T09:11:18;113.50;;;35.72;;
36009;SDS011;22076;52.182;5.404;2022-11-21T09:17:15;106.28;;;35.30;;
36009;SDS011;22076;52.182;5.404;2022-11-21T09:23:05;129.90;;;36.72;;
36009;SDS011;22076;52.182;5.404;2022-11-21T09:25:33;107.65;;;34.03;;
36009;SDS011;22076;52.182;5.404;2022-11-21T09:28:02;109.70;;;33.90;;
36009;SDS011;22076;52.182;5.404;2022-11-21T09:30:49;122.05;;;36.10;;
36009;SDS011;22076;52.182;5.404;2022-11-21T09:33:21;131.05;;;35.17;;
36009;SDS011;22076;52.182;5.404;2022-11-21T09:35:49;148.80;;;38.90;;
36009;SDS011;22076;52.182;5.404;2022-11-21T09:38:18;142.50;;;40.28;;
36009;SDS011;22076;52.182;5.404;2022-11-21T09:40:48;143.50;;;36.43;;
36009;SDS011;22076;52.182;5.404;2022-11-21T09:43:24;166.75;;;42.83;;
36009;SDS011;22076;52.182;5.404;2022-11-21T09:45:58;179.85;;;41.63;;
36009;SDS011;22076;52.182;5.404;2022-11-21T09:48:33;169.57;;;44.85;;
36009;SDS011;22076;52.182;5.404;2022-11-21T09:51:28;117.68;;;35.80;;
36009;SDS011;22076;52.182;5.404;2022-11-21T09:53:57;193.15;;;47.65;;
36009;SDS011;22076;52.182;5.404;2022-11-21T09:56:27;172.85;;;44.42;;
36009;SDS011;22076;52.182;5.404;2022-11-21T09:59:04;154.73;;;40.25;;
36009;SDS011;22076;52.182;5.404;2022-11-21T10:01:39;161.60;;;44.83;;
36009;SDS011;22076;52.182;5.404;2022-11-21T10:04:15;174.02;;;41.25;;
36009;SDS011;22076;52.182;5.404;2022-11-21T10:06:56;194.15;;;45.30;;
36009;SDS011;22076;52.182;5.404;2022-11-21T10:09:40;203.98;;;47.17;;
36009;SDS011;22076;52.182;5.404;2022-11-21T10:12:19;187.80;;;44.22;;
36009;SDS011;22076;52.182;5.404;2022-11-21T10:15:09;223.95;;;45.97;;
36009;SDS011;22076;52.182;5.404;2022-11-21T10:18:12;118.32;;;33.92;;
36009;SDS011;22076;52.182;5.404;2022-11-21T10:20:53;161.73;;;43.20;;
36009;SDS011;22076;52.182;5.404;2022-11-21T10:23:35;131.35;;;35.25;;
36009;SDS011;22076;52.182;5.404;2022-11-21T10:26:29;134.05;;;37.97;;
36009;SDS011;22076;52.182;5.404;2022-11-21T10:29:00;138.02;;;42.25;;
36009;SDS011;22076;52.182;5.404;2022-11-21T10:31:32;175.45;;;42.17;;
36009;SDS011;22076;52.182;5.404;2022-11-21T10:34:04;192.82;;;43.67;;
36009;SDS011;22076;52.182;5.404;2022-11-21T10:36:37;231.15;;;44.95;;
36009;SDS011;22076;52.182;5.404;2022-11-21T10:39:19;205.93;;;49.78;;
36009;SDS011;22076;52.182;5.404;2022-11-21T10:41:54;175.60;;;47.67;;
36009;SDS011;22076;52.182;5.404;2022-11-21T10:44:32;188.93;;;42.05;;
36009;SDS011;22076;52.182;5.404;2022-11-21T10:47:18;211.73;;;49.50;;
36009;SDS011;22076;52.182;5.404;2022-11-21T10:49:58;182.73;;;42.05;;
36009;SDS011;22076;52.182;5.404;2022-11-21T10:52:33;215.10;;;46.35;;
36009;SDS011;22076;52.182;5.404;2022-11-21T10:55:28;193.65;;;48.17;;
36009;SDS011;22076;52.182;5.404;2022-11-21T10:57:56;200.88;;;48.08;;
36009;SDS011;22076;52.182;5.404;2022-11-21T11:00:24;152.85;;;38.53;;
36009;SDS011;22076;52.182;5.404;2022-11-21T11:03:06;139.38;;;41.33;;
36009;SDS011;22076;52.182;5.404;2022-11-21T11:05:43;174.10;;;47.53;;
36009;SDS011;22076;52.182;5.404;2022-11-21T11:08:21;149.38;;;41.67;;
36009;SDS011;22076;52.182;5.404;2022-11-21T11:11:03;168.02;;;49.60;;
36009;SDS011;22076;52.182;5.404;2022-11-21T11:13:49;183.80;;;40.57;;
36009;SDS011;22076;52.182;5.404;2022-11-21T11:16:21;186.75;;;46.58;;
36009;SDS011;22076;52.182;5.404;2022-11-21T11:18:52;150.63;;;47.65;;
36009;SDS011;22076;52.182;5.404;2022-11-21T11:21:25;177.85;;;50.05;;
36009;SDS011;22076;52.182;5.404;2022-11-21T11:24:04;183.95;;;47.17;;
36009;SDS011;22076;52.182;5.404;2022-11-21T11:26:33;150.27;;;42.53;;
36009;SDS011;22076;52.182;5.404;2022-11-21T11:29:06;185.45;;;45.78;;
36009;SDS011;22076;52.182;5.404;2022-11-21T11:31:39;169.32;;;45.58;;
36009;SDS011;22076;52.182;5.404;2022-11-21T11:34:11;174.60;;;51.92;;
36009;SDS011;22076;52.182;5.404;2022-11-21T11:36:47;152.47;;;48.37;;
36009;SDS011;22076;52.182;5.404;2022-11-21T11:39:36;165.02;;;48.42;;
36009;SDS011;22076;52.182;5.404;2022-11-21T11:48:42;198.52;;;52.83;;
36009;SDS011;22076;52.182;5.404;2022-11-21T11:52:05;194.18;;;59.53;;
36009;SDS011;22076;52.182;5.404;2022-11-21T11:54:55;197.00;;;52.90;;
36009;SDS011;22076;52.182;5.404;2022-11-21T11:57:34;182.38;;;56.15;;
36009;SDS011;22076;52.182;5.404;2022-11-21T12:00:04;203.90;;;59.20;;
36009;SDS011;22076;52.182;5.404;2022-11-21T12:02:45;210.02;;;64.03;;
36009;SDS011;22076;52.182;5.404;2022-11-21T12:05:33;215.50;;;61.60;;
36009;SDS011;22076;52.182;5.404;2022-11-21T12:08:29;193.10;;;50.83;;
36009;SDS011;22076;52.182;5.404;2022-11-21T12:11:15;215.05;;;61.80;;
36009;SDS011;22076;52.182;5.404;2022-11-21T12:14:10;222.18;;;61.60;;
36009;SDS011;22076;52.182;5.404;2022-11-21T12:17:00;234.57;;;63.10;;
36009;SDS011;22076;52.182;5.404;2022-11-21T12:20:13;236.90;;;65.50;;
36009;SDS011;22076;52.182;5.404;2022-11-21T12:22:59;222.13;;;65.03;;
36009;SDS011;22076;52.182;5.404;2022-11-21T12:25:45;207.25;;;57.83;;
36009;SDS011;22076;52.182;5.404;2022-11-21T12:28:34;218.77;;;60.67;;
36009;SDS011;22076;52.182;5.404;2022-11-21T12:31:11;219.38;;;61.60;;
36009;SDS011;22076;52.182;5.404;2022-11-21T12:33:48;197.90;;;57.55;;
36009;SDS011;22076;52.182;5.404;2022-11-21T12:36:37;239.70;;;61.25;;
36009;SDS011;22076;52.182;5.404;2022-11-21T12:39:16;175.05;;;52.08;;
36009;SDS011;22076;52.182;5.404;2022-11-21T12:44:49;200.50;;;57.92;;
36009;SDS011;22076;52.182;5.404;2022-11-21T12:47:47;220.98;;;64.90;;
36009;SDS011;22076;52.182;5.404;2022-11-21T12:50:44;146.02;;;47.58;;
36009;SDS011;22076;52.182;5.404;2022-11-21T12:53:36;173.93;;;55.28;;
36009;SDS011;22076;52.182;5.404;2022-11-21T12:56:31;189.65;;;56.47;;
36009;SDS011;22076;52.182;5.404;2022-11-21T12:59:07;172.15;;;53.88;;
36009;SDS011;22076;52.182;5.404;2022-11-21T13:01:39;153.50;;;47.47;;
36009;SDS011;22076;52.182;5.404;2022-11-21T13:04:11;155.05;;;54.70;;
36009;SDS011;22076;52.182;5.404;2022-11-21T13:06:44;154.48;;;51.67;;
36009;SDS011;22076;52.182;5.404;2022-11-21T13:09:13;165.20;;;50.15;;
36009;SDS011;22076;52.182;5.404;2022-11-21T13:11:53;182.93;;;57.33;;
36009;SDS011;22076;52.182;5.404;2022-11-21T13:14:40;184.38;;;50.90;;
36009;SDS011;22076;52.182;5.404;2022-11-21T13:17:17;166.23;;;57.80;;
36009;SDS011;22076;52.182;5.404;2022-11-21T13:20:27;174.13;;;54.25;;
36009;SDS011;22076;52.182;5.404;2022-11-21T13:29:17;159.65;;;49.65;;
36009;SDS011;22076;52.182;5.404;2022-11-21T13:31:49;152.25;;;51.83;;
36009;SDS011;22076;52.182;5.404;2022-11-21T13:34:35;164.10;;;55.28;;
36009;SDS011;22076;52.182;5.404;2022-11-21T13:37:10;146.50;;;51.87;;
36009;SDS011;22076;52.182;5.404;2022-11-21T13:43:25;144.57;;;47.97;;
36009;SDS011;22076;52.182;5.404;2022-11-21T13:46:12;150.20;;;49.65;;
36009;SDS011;22076;52.182;5.404;2022-11-21T13:49:31;124.82;;;44.03;;
36009;SDS011;22076;52.182;5.404;2022-11-21T13:52:24;122.10;;;38.53;;
36009;SDS011;22076;52.182;5.404;2022-11-21T13:55:09;113.68;;;44.47;;
36009;SDS011;22076;52.182;5.404;2022-11-21T13:58:36;98.15;;;38.47;;
36009;SDS011;22076;52.182;5.404;2022-11-21T14:01:28;101.82;;;38.95;;
36009;SDS011;22076;52.182;5.404;2022-11-21T14:07:25;97.97;;;37.40;;
36009;SDS011;22076;52.182;5.404;2022-11-21T14:09:55;108.07;;;40.00;;
36009;SDS011;22076;52.182;5.404;2022-11-21T14:12:27;129.75;;;43.45;;
36009;SDS011;22076;52.182;5.404;2022-11-21T14:15:09;103.85;;;40.20;;
36009;SDS011;22076;52.182;5.404;2022-11-21T14:17:46;111.75;;;43.88;;
36009;SDS011;22076;52.182;5.404;2022-11-21T14:20:16;102.78;;;39.20;;
36009;SDS011;22076;52.182;5.404;2022-11-21T14:22:55;90.38;;;37.63;;
36009;SDS011;22076;52.182;5.404;2022-11-21T14:25:28;108.57;;;39.75;;
36009;SDS011;22076;52.182;5.404;2022-11-21T14:28:00;106.35;;;42.80;;
36009;SDS011;22076;52.182;5.404;2022-11-21T14:30:36;112.03;;;39.83;;
36009;SDS011;22076;52.182;5.404;2022-11-21T14:34:01;89.40;;;35.22;;
36009;SDS011;22076;52.182;5.404;2022-11-21T14:36:31;100.20;;;39.90;;
36009;SDS011;22076;52.182;5.404;2022-11-21T14:39:06;74.15;;;29.27;;
36009;SDS011;22076;52.182;5.404;2022-11-21T14:41:35;99.22;;;39.80;;
36009;SDS011;22076;52.182;5.404;2022-11-21T14:44:14;99.68;;;40.60;;
36009;SDS011;22076;52.182;5.404;2022-11-21T14:46:43;94.20;;;40.90;;
36009;SDS011;22076;52.182;5.404;2022-11-21T14:49:18;73.97;;;32.13;;
36009;SDS011;22076;52.182;5.404;2022-11-21T14:51:49;95.75;;;40.90;;
36009;SDS011;22076;52.182;5.404;2022-11-21T14:54:19;72.47;;;31.23;;
36009;SDS011;22076;52.182;5.404;2022-11-21T14:56:51;88.32;;;37.75;;
36009;SDS011;22076;52.182;5.404;2022-11-21T14:59:24;77.28;;;30.98;;
36009;SDS011;22076;52.182;5.404;2022-11-21T15:01:58;96.35;;;37.67;;
36009;SDS011;22076;52.182;5.404;2022-11-21T15:04:31;89.28;;;35.60;;
36009;SDS011;22076;52.182;5.404;2022-11-21T15:07:03;84.15;;;33.60;;
36009;SDS011;22076;52.182;5.404;2022-11-21T15:09:32;73.30;;;32.60;;
36009;SDS011;22076;52.182;5.404;2022-11-21T15:12:07;76.07;;;32.13;;
36009;SDS011;22076;52.182;5.404;2022-11-21T15:14:42;72.30;;;32.97;;
36009;SDS011;22076;52.182;5.404;2022-11-21T15:17:15;79.68;;;32.05;;
36009;SDS011;22076;52.182;5.404;2022-11-21T15:20:14;83.65;;;31.50;;
36009;SDS011;22076;52.182;5.404;2022-11-21T15:22:52;65.78;;;31.00;;
36009;SDS011;22076;52.182;5.404;2022-11-21T15:25:30;73.22;;;31.55;;